Time;durP1;ratioP1;P1;durP2;ratioP2;P2;SDS_P1;SDS_P2;PMS_P1;PMS_P2;Temp;Humidity;BMP_temperature;BMP_pressure;BME280_temperature;BME280_humidity;BME280_pressure;Samples;Min_cycle;Max_cycle;Signal;HPM_P1;HPM_P2
2023/08/23 00:02:13;;;;;;;2.60;2.10;;;;;;;;;;5073401;28;20195;-70
2023/08/23 00:04:39;;;;;;;5.07;1.83;;;21.10;99.90;;;;;;5073129;28;20184;-71
2023/08/23 00:07:05;;;;;;;2.20;2.10;;;;;;;;;;5073334;28;20444;-71
2023/08/23 00:09:31;;;;;;;3.03;2.07;;;21.20;99.90;;;;;;5073349;28;20501;-72
2023/08/23 00:11:57;;;;;;;2.00;1.80;;;21.00;99.90;;;;;;5073215;28;20441;-71
2023/08/23 00:14:22;;;;;;;3.97;3.00;;;21.00;99.90;;;;;;5072758;28;20623;-71
2023/08/23 00:16:48;;;;;;;2.77;2.47;;;21.00;99.90;;;;;;5073288;28;20408;-72
2023/08/23 00:19:14;;;;;;;3.90;3.17;;;;;;;;;;5073221;28;20186;-72
2023/08/23 00:21:39;;;;;;;2.27;2.03;;;21.10;99.90;;;;;;5073013;28;20205;-71
2023/08/23 00:24:06;;;;;;;2.67;2.17;;;;;;;;;;5073313;28;20410;-70
2023/08/23 00:26:32;;;;;;;4.30;1.70;;;;;;;;;;5073191;28;20177;-71
2023/08/23 00:28:57;;;;;;;4.10;2.30;;;21.10;99.90;;;;;;5073410;28;20398;-71
2023/08/23 00:31:23;;;;;;;2.70;2.20;;;21.00;99.90;;;;;;5073035;28;20812;-70
2023/08/23 00:33:48;;;;;;;1.80;1.70;;;20.90;99.90;;;;;;5072987;28;20643;-71
2023/08/23 00:36:14;;;;;;;3.27;2.50;;;20.90;99.90;;;;;;5072877;28;20178;-71
2023/08/23 00:38:40;;;;;;;2.23;2.13;;;;;;;;;;5073004;28;20172;-72
2023/08/23 00:41:06;;;;;;;1.97;1.87;;;;;;;;;;5072934;28;20198;-70
2023/08/23 00:43:32;;;;;;;1.53;1.43;;;;;;;;;;5072932;28;20451;-71
2023/08/23 00:45:58;;;;;;;3.30;3.00;;;21.10;99.90;;;;;;5072893;28;20869;-71
2023/08/23 00:48:24;;;;;;;2.90;2.70;;;;;;;;;;5073262;28;20484;-71
2023/08/23 00:50:50;;;;;;;1.87;1.77;;;;;;;;;;5072746;28;20201;-70
2023/08/23 00:53:16;;;;;;;2.63;2.00;;;;;;;;;;5072856;28;20428;-71
2023/08/23 00:55:42;;;;;;;1.33;1.23;;;;;;;;;;5072766;28;20407;-70
2023/08/23 00:58:08;;;;;;;2.53;2.33;;;20.80;99.90;;;;;;5072976;28;20798;-70
2023/08/23 01:00:34;;;;;;;3.00;2.30;;;21.30;99.90;;;;;;5072710;28;20393;-70
2023/08/23 01:03:00;;;;;;;2.60;2.40;;;20.80;99.90;;;;;;5073140;28;20786;-72
2023/08/23 01:05:41;;;;;;;8.33;2.70;;;20.80;99.90;;;;;;5072595;28;20214;-71
2023/08/23 01:08:07;;;;;;;4.40;1.70;;;20.80;99.90;;;;;;5072845;28;20397;-71
2023/08/23 01:10:59;;;;;;;1.40;1.30;;;20.70;99.90;;;;;;5072701;28;20542;-71
2023/08/23 01:13:38;;;;;;;2.67;1.80;;;20.80;99.90;;;;;;5072826;28;20172;-70
2023/08/23 01:16:09;;;;;;;2.20;1.97;;;20.70;99.90;;;;;;5072610;28;20419;-71
2023/08/23 01:18:36;;;;;;;2.10;1.80;;;20.80;99.90;;;;;;5072849;28;20482;-72
2023/08/23 01:21:03;;;;;;;1.87;1.77;;;20.70;99.90;;;;;;5072592;28;20591;-71
2023/08/23 01:23:30;;;;;;;3.33;2.80;;;20.60;99.90;;;;;;5072573;28;20856;-71
2023/08/23 01:25:56;;;;;;;2.20;2.00;;;;;;;;;;5072344;28;20822;-71
2023/08/23 01:28:21;;;;;;;3.00;2.80;;;20.70;99.90;;;;;;5075407;28;20394;-71
2023/08/23 01:30:49;;;;;;;4.83;4.43;;;20.60;99.90;;;;;;5076151;28;20459;-70
2023/08/23 01:33:23;;;;;;;1.83;1.50;;;20.80;99.90;;;;;;5076160;28;20201;-71
2023/08/23 01:36:19;;;;;;;2.17;1.90;;;20.70;99.90;;;;;;5076052;28;20401;-70
2023/08/23 01:38:47;;;;;;;2.00;1.77;;;20.80;99.90;;;;;;5076016;28;20396;-71
2023/08/23 01:41:23;;;;;;;3.97;2.53;;;20.80;99.90;;;;;;5075963;28;20440;-72
2023/08/23 01:43:50;;;;;;;3.03;2.70;;;20.80;99.90;;;;;;5076000;28;20774;-71
2023/08/23 01:46:16;;;;;;;2.73;2.53;;;;;;;;;;5075848;28;20488;-70
2023/08/23 01:48:42;;;;;;;3.13;2.83;;;20.80;99.90;;;;;;5075692;28;20484;-70
2023/08/23 01:51:08;;;;;;;3.63;3.33;;;20.70;99.90;;;;;;5075828;28;20420;-71
2023/08/23 01:53:33;;;;;;;2.83;2.60;;;20.80;99.90;;;;;;5075614;28;20198;-72
2023/08/23 01:56:00;;;;;;;2.17;2.00;;;20.70;99.90;;;;;;5075495;28;20221;-72
2023/08/23 01:58:25;;;;;;;3.53;1.67;;;20.60;99.90;;;;;;5075695;28;20162;-70
2023/08/23 02:00:52;;;;;;;3.30;3.10;;;20.60;99.90;;;;;;5075455;28;20417;-71
2023/08/23 02:03:18;;;;;;;3.20;2.33;;;20.50;99.90;;;;;;5075378;28;20595;-71
2023/08/23 02:05:44;;;;;;;2.20;1.83;;;20.50;99.90;;;;;;5075308;28;20786;-72
2023/08/23 02:08:10;;;;;;;2.23;2.03;;;20.80;99.90;;;;;;5075444;28;20404;-71
2023/08/23 02:10:36;;;;;;;2.00;1.83;;;20.70;99.90;;;;;;5075245;28;20416;-71
2023/08/23 02:13:06;;;;;;;2.00;1.90;;;20.60;99.90;;;;;;5075304;28;20417;-70
2023/08/23 02:15:32;;;;;;;1.73;1.57;;;;;;;;;;5075162;28;20512;-71
2023/08/23 02:17:58;;;;;;;3.13;2.23;;;;;;;;;;5075322;28;20401;-71
2023/08/23 02:20:24;;;;;;;2.57;2.37;;;20.50;99.90;;;;;;5075119;28;20491;-71
2023/08/23 02:22:49;;;;;;;4.60;2.67;;;20.40;99.90;;;;;;5075095;28;20550;-71
2023/08/23 02:25:15;;;;;;;1.60;1.50;;;20.40;99.90;;;;;;5074985;28;20174;-72
2023/08/23 02:27:41;;;;;;;3.53;3.23;;;20.30;99.90;;;;;;5075132;28;20178;-71
2023/08/23 02:30:07;;;;;;;6.20;2.47;;;20.50;99.90;;;;;;5075009;28;20515;-72
2023/08/23 02:32:33;;;;;;;2.87;1.80;;;20.30;99.90;;;;;;5075037;28;20645;-71
2023/08/23 02:34:59;;;;;;;5.30;2.67;;;20.40;99.90;;;;;;5074677;28;20453;-72
2023/08/23 02:37:25;;;;;;;3.20;2.67;;;;;;;;;;5074484;28;20418;-70
2023/08/23 02:39:51;;;;;;;3.13;2.60;;;20.40;99.90;;;;;;5075114;28;20491;-71
2023/08/23 02:42:17;;;;;;;2.67;2.43;;;20.10;99.90;;;;;;5074564;28;20501;-72
2023/08/23 02:44:42;;;;;;;2.60;2.10;;;20.40;99.90;;;;;;5074680;28;20174;-71
2023/08/23 02:47:08;;;;;;;2.17;2.00;;;20.20;99.90;;;;;;5074796;28;20253;-72
2023/08/23 02:49:33;;;;;;;2.67;2.33;;;20.30;99.90;;;;;;5074487;28;20197;-71
2023/08/23 02:51:59;;;;;;;2.07;1.97;;;20.30;99.90;;;;;;5074447;28;20198;-71
2023/08/23 02:54:24;;;;;;;3.83;2.40;;;20.70;99.90;;;;;;5074322;28;20174;-70
2023/08/23 02:56:50;;;;;;;2.47;2.27;;;;;;;;;;5074559;28;20652;-72
2023/08/23 02:59:16;;;;;;;1.90;1.80;;;20.50;99.90;;;;;;5074518;28;20170;-72
2023/08/23 03:01:42;;;;;;;2.40;2.20;;;;;;;;;;5074353;28;20517;-72
2023/08/23 03:04:08;;;;;;;3.80;2.23;;;;;;;;;;5074048;28;20507;-71
2023/08/23 03:06:34;;;;;;;1.43;1.33;;;;;;;;;;5074268;28;20445;-71
2023/08/23 03:09:00;;;;;;;2.13;2.00;;;;;;;;;;5074104;28;20849;-72
2023/08/23 03:11:26;;;;;;;3.10;2.50;;;20.20;99.90;;;;;;5073617;28;20460;-71
2023/08/23 03:13:51;;;;;;;2.60;1.63;;;20.20;99.90;;;;;;5074106;28;20742;-70
2023/08/23 03:16:18;;;;;;;4.57;2.80;;;20.30;99.90;;;;;;5073935;28;20170;-70
2023/08/23 03:18:44;;;;;;;32.70;2.67;;;20.30;99.90;;;;;;5074046;28;20169;-71
2023/08/23 03:21:09;;;;;;;4.30;2.33;;;20.30;99.90;;;;;;5074007;28;20818;-71
2023/08/23 03:23:35;;;;;;;4.10;3.80;;;19.60;99.90;;;;;;5073903;28;20223;-71
2023/08/23 03:26:00;;;;;;;3.33;2.50;;;20.20;99.90;;;;;;5073700;28;20173;-70
2023/08/23 03:28:26;;;;;;;3.13;3.03;;;20.20;99.90;;;;;;5073895;28;20177;-71
2023/08/23 03:30:52;;;;;;;2.40;2.20;;;20.10;99.90;;;;;;5073730;28;20190;-71
2023/08/23 03:33:17;;;;;;;1.63;1.53;;;20.10;99.90;;;;;;5073776;28;20177;-70
2023/08/23 03:35:43;;;;;;;3.53;3.23;;;20.10;99.90;;;;;;5073798;28;20204;-70
2023/08/23 03:38:09;;;;;;;3.53;2.80;;;;;;;;;;5073896;28;20212;-71
2023/08/23 03:40:38;;;;;;;3.40;2.27;;;20.20;99.90;;;;;;5072189;28;20205;-71
2023/08/23 03:43:04;;;;;;;2.50;2.30;;;20.20;99.90;;;;;;5073937;28;20466;-71
2023/08/23 03:45:30;;;;;;;4.73;2.30;;;;;;;;;;5073594;28;20495;-70
2023/08/23 03:47:56;;;;;;;1.90;1.80;;;20.30;99.90;;;;;;5073579;28;20746;-71
2023/08/23 03:50:22;;;;;;;2.33;2.23;;;20.40;99.90;;;;;;5072716;28;20439;-71
2023/08/23 03:52:48;;;;;;;2.47;2.37;;;20.20;99.90;;;;;;5073468;28;20177;-70
2023/08/23 03:55:13;;;;;;;2.67;2.47;;;20.30;99.90;;;;;;5073276;28;20170;-70
2023/08/23 03:57:39;;;;;;;2.43;2.23;;;20.20;99.90;;;;;;5073493;28;20215;-71
2023/08/23 04:00:05;;;;;;;4.67;3.73;;;20.20;99.90;;;;;;5073599;28;20527;-70
2023/08/23 04:02:31;;;;;;;2.80;2.60;;;19.90;99.90;;;;;;5073215;28;20201;-70
2023/08/23 04:04:57;;;;;;;2.90;2.60;;;20.20;99.90;;;;;;5073237;28;21037;-71
2023/08/23 04:07:22;;;;;;;2.97;2.77;;;20.20;99.90;;;;;;5073477;28;20198;-71
2023/08/23 04:09:48;;;;;;;1.73;1.63;;;20.20;99.90;;;;;;5073481;28;20207;-70
2023/08/23 04:12:14;;;;;;;2.40;2.20;;;20.20;99.90;;;;;;5073241;28;20204;-70
2023/08/23 04:14:39;;;;;;;1.90;1.80;;;20.10;99.90;;;;;;5073200;28;20682;-71
2023/08/23 04:17:05;;;;;;;3.20;2.90;;;20.10;99.90;;;;;;5073362;28;20634;-71
2023/08/23 04:19:30;;;;;;;2.03;1.63;;;20.00;99.90;;;;;;5073413;28;20203;-71
2023/08/23 04:21:56;;;;;;;4.30;2.80;;;20.00;99.90;;;;;;5073023;28;20198;-71
2023/08/23 04:24:22;;;;;;;2.17;2.07;;;20.00;99.90;;;;;;5072979;28;20181;-71
2023/08/23 04:26:48;;;;;;;1.97;1.43;;;19.90;99.90;;;;;;5073183;28;20173;-70
2023/08/23 04:29:14;;;;;;;8.90;3.63;;;;;;;;;;5073191;28;20630;-70
2023/08/23 04:31:40;;;;;;;5.03;4.63;;;19.90;99.90;;;;;;5073179;28;20420;-71
2023/08/23 04:34:05;;;;;;;3.20;2.90;;;20.00;99.90;;;;;;5072936;28;20463;-69
2023/08/23 04:36:32;;;;;;;2.10;1.70;;;;;;;;;;5073175;28;20178;-70
2023/08/23 04:38:57;;;;;;;1.97;1.70;;;19.70;99.90;;;;;;5073463;28;20181;-71
2023/08/23 04:41:23;;;;;;;3.90;1.70;;;19.90;99.90;;;;;;5072856;28;20430;-70
2023/08/23 04:43:49;;;;;;;4.83;2.73;;;20.00;99.90;;;;;;5073051;28;20196;-70
2023/08/23 04:46:14;;;;;;;3.57;3.37;;;20.00;99.90;;;;;;5072907;28;20538;-72
2023/08/23 04:48:40;;;;;;;2.47;2.30;;;;;;;;;;5072862;28;20638;-71
2023/08/23 04:51:09;;;;;;;4.47;3.90;;;19.90;99.90;;;;;;5072903;28;20259;-72
2023/08/23 04:53:36;;;;;;;2.03;1.90;;;19.90;99.90;;;;;;5073084;28;20431;-71
2023/08/23 04:56:02;;;;;;;2.40;1.57;;;19.90;99.90;;;;;;5072674;28;20408;-71
2023/08/23 04:58:30;;;;;;;3.03;1.77;;;19.90;99.90;;;;;;5072951;28;20415;-70
2023/08/23 05:01:03;;;;;;;1.63;1.00;;;19.90;99.90;;;;;;5073793;28;20561;-71
2023/08/23 05:03:29;;;;;;;3.93;3.53;;;19.90;99.90;;;;;;5076591;28;20447;-71
2023/08/23 05:05:55;;;;;;;3.57;3.30;;;;;;;;;;5076331;28;20491;-71
2023/08/23 05:08:21;;;;;;;2.37;2.17;;;20.10;99.90;;;;;;5076534;28;20435;-71
2023/08/23 05:10:53;;;;;;;1.17;1.07;;;20.20;99.90;;;;;;5076453;28;20998;-70
2023/08/23 05:13:20;;;;;;;2.00;1.90;;;20.20;99.90;;;;;;5076530;28;20187;-70
2023/08/23 05:15:51;;;;;;;2.23;2.03;;;20.30;99.90;;;;;;5076378;28;20408;-71
2023/08/23 05:18:17;;;;;;;4.87;4.47;;;;;;;;;;5076396;28;20820;-70
2023/08/23 05:20:43;;;;;;;2.00;1.80;;;;;;;;;;5076121;28;20449;-71
2023/08/23 05:23:08;;;;;;;1.50;1.40;;;20.50;99.90;;;;;;5076368;28;20547;-69
2023/08/23 05:25:34;;;;;;;4.17;3.67;;;;;;;;;;5076083;28;20445;-71
2023/08/23 05:28:00;;;;;;;3.60;3.30;;;;;;;;;;5076221;28;20177;-71
2023/08/23 05:30:26;;;;;;;2.50;1.90;;;20.50;99.90;;;;;;5076230;28;20409;-71
2023/08/23 05:32:52;;;;;;;2.13;2.03;;;20.80;99.90;;;;;;5076010;28;20910;-71
2023/08/23 05:35:17;;;;;;;4.20;2.00;;;21.00;99.90;;;;;;5075876;28;20195;-70
2023/08/23 05:37:43;;;;;;;6.43;3.30;;;;;;;;;;5076192;28;20180;-72
2023/08/23 05:40:09;;;;;;;2.00;1.13;;;21.50;99.90;;;;;;5075969;28;20179;-72
2023/08/23 05:42:35;;;;;;;1.90;1.80;;;21.80;99.90;;;;;;5074464;28;21013;-72
2023/08/23 05:45:00;;;;;;;2.73;2.53;;;22.20;99.90;;;;;;5075636;28;20378;-70
2023/08/23 05:47:26;;;;;;;3.80;3.03;;;22.50;99.90;;;;;;5075954;28;20178;-71
2023/08/23 05:49:52;;;;;;;2.77;1.77;;;22.70;99.90;;;;;;5075584;28;20181;-72
2023/08/23 05:52:18;;;;;;;1.53;1.47;;;;;;;;;;5075680;28;20419;-70
2023/08/23 05:54:44;;;;;;;3.80;2.37;;;23.20;99.90;;;;;;5075693;28;20541;-72
2023/08/23 05:57:09;;;;;;;2.90;2.70;;;23.80;99.90;;;;;;5075765;28;20400;-72
2023/08/23 05:59:35;;;;;;;3.93;2.87;;;24.10;99.90;;;;;;5075652;28;20173;-72
2023/08/23 06:02:01;;;;;;;2.30;2.10;;;;;;;;;;5075430;28;20201;-71
2023/08/23 06:04:27;;;;;;;2.90;2.07;;;25.20;99.70;;;;;;5075292;28;20177;-70
2023/08/23 06:06:53;;;;;;;1.53;1.00;;;25.30;99.90;;;;;;5075525;28;20884;-72
2023/08/23 06:09:19;;;;;;;1.90;1.37;;;25.20;99.90;;;;;;5075607;28;20378;-71
2023/08/23 06:11:44;;;;;;;1.23;1.23;;;25.50;99.40;;;;;;5075519;28;20326;-71
2023/08/23 06:14:22;;;;;;;2.00;1.73;;;25.70;99.00;;;;;;5074373;28;20602;-72
2023/08/23 06:16:48;;;;;;;1.90;1.53;;;26.20;98.30;;;;;;5075478;28;20195;-72
2023/08/23 06:19:14;;;;;;;1.53;1.40;;;26.80;97.20;;;;;;5075136;28;20412;-72
2023/08/23 06:21:43;;;;;;;1.90;1.80;;;27.10;96.40;;;;;;5074974;28;20457;-72
2023/08/23 06:24:09;;;;;;;1.50;1.40;;;27.20;95.70;;;;;;5075295;28;20200;-71
2023/08/23 06:26:35;;;;;;;3.10;2.07;;;;;;;;;;5074963;28;20746;-72
2023/08/23 06:29:01;;;;;;;1.73;1.57;;;27.00;95.50;;;;;;5075110;28;20403;-72
2023/08/23 06:31:27;;;;;;;1.90;1.70;;;26.80;96.20;;;;;;5075182;28;20410;-72
2023/08/23 06:33:52;;;;;;;1.50;1.40;;;26.70;96.60;;;;;;5074917;28;20166;-71
2023/08/23 06:36:18;;;;;;;2.50;1.97;;;;;;;;;;5075105;28;20169;-72
2023/08/23 06:38:44;;;;;;;2.27;2.07;;;27.10;96.00;;;;;;5074956;28;20588;-71
2023/08/23 06:41:10;;;;;;;1.80;1.70;;;;;;;;;;5074741;28;20420;-72
2023/08/23 06:43:36;;;;;;;1.57;1.13;;;27.50;95.50;;;;;;5074663;28;20280;-72
2023/08/23 06:46:01;;;;;;;2.60;1.83;;;27.70;95.40;;;;;;5074548;28;20436;-72
2023/08/23 06:48:28;;;;;;;1.67;1.57;;;;;;;;;;5074717;28;20248;-70
2023/08/23 06:50:54;;;;;;;2.33;1.47;;;27.50;95.30;;;;;;5074664;28;20657;-70
2023/08/23 06:53:20;;;;;;;1.80;1.40;;;27.40;95.90;;;;;;5074530;28;20408;-71
2023/08/23 06:55:46;;;;;;;2.93;2.40;;;27.30;96.00;;;;;;5074449;28;20439;-72
2023/08/23 06:58:12;;;;;;;1.83;1.37;;;27.20;96.40;;;;;;5074418;28;20485;-71
2023/08/23 07:00:38;;;;;;;3.50;2.20;;;;;;;;;;5074734;28;20271;-71
2023/08/23 07:03:04;;;;;;;2.40;2.10;;;27.20;96.20;;;;;;5074697;28;21052;-71
2023/08/23 07:05:30;;;;;;;2.53;2.23;;;;;;;;;;5074215;28;20495;-70
2023/08/23 07:07:56;;;;;;;2.17;2.07;;;;;;;;;;5074256;28;20672;-72
2023/08/23 07:10:21;;;;;;;2.30;2.10;;;27.50;99.90;;;;;;5074146;28;20423;-72
2023/08/23 07:12:47;;;;;;;1.73;1.60;;;27.50;96.40;;;;;;5074121;28;20422;-71
2023/08/23 07:15:12;;;;;;;2.40;1.97;;;27.80;96.30;;;;;;5073940;28;20252;-71
2023/08/23 07:17:38;;;;;;;1.80;1.70;;;28.20;96.00;;;;;;5074040;28;20180;-71
2023/08/23 07:20:05;;;;;;;1.67;1.17;;;28.60;95.70;;;;;;5074080;28;20174;-72
2023/08/23 07:22:31;;;;;;;1.97;1.57;;;29.10;94.90;;;;;;5073781;28;20293;-72
2023/08/23 07:24:57;;;;;;;2.13;1.67;;;29.60;93.50;;;;;;5073687;28;20494;-72
2023/08/23 07:27:22;;;;;;;1.70;1.43;;;30.00;93.10;;;;;;5074008;28;20197;-73
2023/08/23 07:29:48;;;;;;;1.57;1.37;;;30.50;92.20;;;;;;5073815;28;20938;-71
2023/08/23 07:32:14;;;;;;;2.47;2.37;;;30.90;91.30;;;;;;5073775;28;20205;-72
2023/08/23 07:34:40;;;;;;;1.60;1.50;;;31.60;89.90;;;;;;5073678;28;20173;-71
2023/08/23 07:37:06;;;;;;;3.27;1.47;;;32.40;86.90;;;;;;5073733;28;20201;-71
2023/08/23 07:39:32;;;;;;;1.70;1.60;;;33.40;84.30;;;;;;5073534;28;20408;-73
2023/08/23 07:41:57;;;;;;;2.20;1.60;;;34.70;79.60;;;;;;5073565;28;20886;-73
2023/08/23 07:44:23;;;;;;;1.57;1.30;;;36.10;73.30;;;;;;5073704;28;20162;-73
2023/08/23 07:46:49;;;;;;;1.40;1.20;;;;;;;;;;5073617;28;20257;-72
2023/08/23 07:49:15;;;;;;;2.13;1.20;;;38.90;60.90;;;;;;5073455;28;20193;-73
2023/08/23 07:51:41;;;;;;;0.80;0.80;;;40.20;58.00;;;;;;5073663;28;20566;-72
2023/08/23 07:54:08;;;;;;;0.90;0.90;;;41.30;53.30;;;;;;5073515;28;20251;-73
2023/08/23 07:56:34;;;;;;;1.77;1.67;;;42.90;45.40;;;;;;5073598;28;20570;-73
2023/08/23 07:58:59;;;;;;;1.47;1.33;;;42.80;45.80;;;;;;5073428;28;20180;-73
2023/08/23 08:01:26;;;;;;;1.57;0.93;;;42.90;46.80;;;;;;5073395;28;20423;-73
2023/08/23 08:03:52;;;;;;;1.40;1.30;;;43.60;45.70;;;;;;5073552;28;20205;-73
2023/08/23 08:06:18;;;;;;;1.50;1.40;;;44.10;43.90;;;;;;5073398;28;20967;-73
2023/08/23 08:08:44;;;;;;;1.40;1.30;;;44.50;43.70;;;;;;5073479;28;20487;-73
2023/08/23 08:11:11;;;;;;;1.57;1.47;;;44.90;42.70;;;;;;5073458;28;20185;-73
2023/08/23 08:13:37;;;;;;;1.50;1.40;;;44.00;40.00;;;;;;5073285;28;20183;-72
2023/08/23 08:16:08;;;;;;;2.57;2.33;;;44.00;41.40;;;;;;5073218;28;20403;-72
2023/08/23 08:18:34;;;;;;;1.40;1.30;;;43.70;41.40;;;;;;5073200;28;20403;-72
2023/08/23 08:21:00;;;;;;;2.40;1.30;;;43.60;42.60;;;;;;5073199;28;20423;-73
2023/08/23 08:23:25;;;;;;;2.73;1.67;;;43.50;41.10;;;;;;5073159;28;20189;-73
2023/08/23 08:25:51;;;;;;;1.40;1.30;;;43.40;41.00;;;;;;5072933;28;20399;-74
2023/08/23 08:28:17;;;;;;;1.27;1.17;;;;;;;;;;5073391;28;20171;-73
2023/08/23 08:30:43;;;;;;;1.30;1.20;;;43.10;41.80;;;;;;5073116;28;20191;-72
2023/08/23 08:33:08;;;;;;;2.20;1.93;;;43.30;42.00;;;;;;5073015;28;20201;-74
2023/08/23 08:35:34;;;;;;;1.83;1.73;;;43.00;41.30;;;;;;5073213;28;20170;-73
2023/08/23 08:37:59;;;;;;;1.63;1.53;;;42.20;42.00;;;;;;5077314;28;20165;-72
2023/08/23 08:40:25;;;;;;;9.73;1.27;;;41.20;57.10;;;;;;5077021;28;20193;-73
2023/08/23 08:42:52;;;;;;;2.00;1.80;;;40.90;44.50;;;;;;5077086;28;20223;-72
2023/08/23 08:45:20;;;;;;;1.93;1.83;;;40.90;44.60;;;;;;5077113;28;20526;-73
2023/08/23 08:47:47;;;;;;;2.70;2.00;;;;;;;;;;5075644;28;20821;-73
2023/08/23 08:50:13;;;;;;;1.90;1.80;;;;;;;;;;5076860;28;20514;-74
2023/08/23 08:52:49;;;;;;;1.87;1.70;;;40.60;44.40;;;;;;5076744;28;21081;-73
2023/08/23 08:55:15;;;;;;;2.50;2.07;;;40.90;44.40;;;;;;5076868;28;20402;-73
2023/08/23 08:57:42;;;;;;;1.60;1.50;;;;;;;;;;5077020;28;20451;-72
2023/08/23 09:00:09;;;;;;;1.80;1.70;;;41.50;42.90;;;;;;5076815;28;20396;-72
2023/08/23 09:02:35;;;;;;;2.20;2.00;;;40.90;44.50;;;;;;5076657;28;20431;-72
2023/08/23 09:05:03;;;;;;;1.83;1.73;;;;;;;;;;5076491;28;20764;-73
2023/08/23 09:07:29;;;;;;;3.30;1.40;;;40.60;44.40;;;;;;5075450;28;20494;-73
2023/08/23 09:09:55;;;;;;;2.63;2.17;;;40.10;46.10;;;;;;5076646;28;20415;-72
2023/08/23 09:12:21;;;;;;;2.57;2.10;;;39.80;46.10;;;;;;5076354;28;20201;-73
2023/08/23 09:14:50;;;;;;;2.20;1.93;;;39.00;47.40;;;;;;5076382;28;20399;-72
2023/08/23 09:17:20;;;;;;;2.77;2.57;;;38.50;48.50;;;;;;5076532;28;20573;-73
2023/08/23 09:19:46;;;;;;;2.10;1.90;;;;;;;;;;5076569;28;20423;-73
2023/08/23 09:22:12;;;;;;;3.20;2.00;;;;;;;;;;5076391;28;20470;-73
2023/08/23 09:24:38;;;;;;;1.93;1.63;;;;;;;;;;5076057;28;20484;-72
2023/08/23 09:27:04;;;;;;;1.87;1.70;;;38.10;48.50;;;;;;5076250;28;20399;-72
2023/08/23 09:29:29;;;;;;;3.97;2.20;;;37.90;49.00;;;;;;5076228;28;20399;-73
2023/08/23 09:31:59;;;;;;;2.93;2.73;;;37.10;50.20;;;;;;5076142;28;20790;-72
2023/08/23 09:34:25;;;;;;;2.07;1.97;;;;;;;;;;5075911;28;20161;-72
2023/08/23 09:36:51;;;;;;;1.53;1.43;;;36.00;52.10;;;;;;5075967;28;20400;-73
2023/08/23 09:39:18;;;;;;;2.60;2.40;;;36.50;52.40;;;;;;5076173;28;20491;-72
2023/08/23 09:41:43;;;;;;;2.50;2.10;;;36.80;51.60;;;;;;5075904;28;20419;-73
2023/08/23 09:44:10;;;;;;;1.73;1.63;;;;;;;;;;5076086;28;20771;-73
2023/08/23 09:46:37;;;;;;;1.97;1.77;;;36.60;51.20;;;;;;5076013;28;20173;-72
2023/08/23 09:49:10;;;;;;;1.80;1.67;;;36.50;51.40;;;;;;5074488;28;20935;-72
2023/08/23 09:51:37;;;;;;;2.30;1.70;;;36.30;52.00;;;;;;5075921;28;20424;-72
2023/08/23 09:54:16;;;;;;;2.33;2.13;;;36.10;53.30;;;;;;5075758;28;20403;-72
2023/08/23 09:56:43;;;;;;;2.37;2.17;;;36.00;54.00;;;;;;5075889;28;20785;-72
2023/08/23 09:59:10;;;;;;;2.07;1.87;;;34.50;53.30;;;;;;5075823;28;20453;-72
2023/08/23 10:01:37;;;;;;;2.20;2.07;;;34.50;53.80;;;;;;5075704;28;20415;-72
2023/08/23 10:04:03;;;;;;;1.67;1.50;;;33.90;55.10;;;;;;5075568;28;20474;-72
2023/08/23 10:06:33;;;;;;;1.70;1.60;;;33.50;57.40;;;;;;5075508;28;20406;-73
2023/08/23 10:08:59;;;;;;;2.20;2.10;;;33.50;57.40;;;;;;5075826;28;20492;-72
2023/08/23 10:11:29;;;;;;;3.07;1.43;;;33.70;58.50;;;;;;5075484;28;20423;-73
2023/08/23 10:13:58;;;;;;;2.10;2.00;;;34.20;57.20;;;;;;5075170;28;20474;-72
2023/08/23 10:16:25;;;;;;;5.13;2.70;;;34.80;56.00;;;;;;5075470;28;20422;-72
2023/08/23 10:18:52;;;;;;;8.33;1.90;;;34.90;54.40;;;;;;5075221;28;20412;-72
2023/08/23 10:21:18;;;;;;;3.03;1.67;;;34.70;55.30;;;;;;5075365;28;20439;-72
2023/08/23 10:23:44;;;;;;;2.03;1.93;;;34.30;56.70;;;;;;5075260;28;20422;-73
2023/08/23 10:26:21;;;;;;;2.10;1.90;;;34.30;56.70;;;;;;5075187;28;20295;-73
2023/08/23 10:28:51;;;;;;;1.53;1.43;;;34.90;57.20;;;;;;5075267;28;20407;-72
2023/08/23 10:31:28;;;;;;;1.97;1.80;;;35.80;53.80;;;;;;5074964;28;20420;-73
2023/08/23 10:33:55;;;;;;;2.03;1.80;;;36.40;53.10;;;;;;5074783;28;20416;-72
2023/08/23 10:36:21;;;;;;;2.67;2.47;;;;;;;;;;5075044;28;20408;-72
2023/08/23 10:38:47;;;;;;;2.23;2.00;;;36.80;52.00;;;;;;5074956;28;20900;-72
2023/08/23 10:41:17;;;;;;;4.70;1.70;;;36.70;51.80;;;;;;5074843;28;20486;-72
2023/08/23 10:43:47;;;;;;;2.00;1.90;;;37.00;50.30;;;;;;5075083;28;20197;-72
2023/08/23 10:46:16;;;;;;;2.53;2.33;;;37.20;51.30;;;;;;5074638;28;20527;-73
2023/08/23 10:48:42;;;;;;;1.80;1.70;;;37.20;51.40;;;;;;5074531;28;20443;-73
2023/08/23 10:51:09;;;;;;;2.80;1.77;;;37.20;51.40;;;;;;5074775;28;20439;-72
2023/08/23 10:53:35;;;;;;;1.60;1.50;;;36.90;50.30;;;;;;5074509;28;20462;-73
2023/08/23 10:56:02;;;;;;;2.17;2.03;;;36.60;51.80;;;;;;5074304;28;20773;-73
2023/08/23 10:58:27;;;;;;;1.50;1.40;;;36.30;51.50;;;;;;5074415;28;20169;-73
2023/08/23 11:00:53;;;;;;;2.77;2.27;;;36.10;51.90;;;;;;5074451;28;20898;-73
2023/08/23 11:03:22;;;;;;;1.67;1.50;;;35.00;52.10;;;;;;5074362;28;20184;-73
2023/08/23 11:05:48;;;;;;;2.40;2.20;;;;;;;;;;5074318;28;20629;-72
2023/08/23 11:08:15;;;;;;;2.73;1.47;;;34.10;55.40;;;;;;5074280;28;20414;-73
2023/08/23 11:10:42;;;;;;;7.93;2.90;;;33.60;57.40;;;;;;5074374;28;20432;-73
2023/08/23 11:13:07;;;;;;;2.77;1.80;;;33.60;57.90;;;;;;5074346;28;20459;-73
2023/08/23 11:15:34;;;;;;;1.77;1.60;;;33.80;57.80;;;;;;5074031;28;20495;-72
2023/08/23 11:18:01;;;;;;;2.30;2.17;;;33.90;56.60;;;;;;5074165;28;20165;-71
2023/08/23 11:20:28;;;;;;;2.10;2.00;;;33.80;80.60;;;;;;5074168;28;20488;-72
2023/08/23 11:22:54;;;;;;;2.33;2.10;;;;;;;;;;5073925;28;20906;-72
2023/08/23 11:25:20;;;;;;;2.17;1.50;;;33.70;57.60;;;;;;5073794;28;20779;-72
2023/08/23 11:27:46;;;;;;;1.93;1.67;;;;;;;;;;5074060;28;20767;-72
2023/08/23 11:30:12;;;;;;;2.17;1.60;;;33.00;56.00;;;;;;5073913;28;20425;-72
2023/08/23 11:32:37;;;;;;;2.50;2.30;;;33.00;58.30;;;;;;5073809;28;20461;-73
2023/08/23 11:35:05;;;;;;;3.23;1.93;;;33.20;57.70;;;;;;5073645;28;20184;-72
2023/08/23 11:37:31;;;;;;;2.60;2.40;;;;;;;;;;5073913;28;20177;-72
2023/08/23 11:40:07;;;;;;;2.03;1.80;;;32.80;56.70;;;;;;5073806;28;20868;-72
2023/08/23 11:42:35;;;;;;;3.90;1.60;;;32.50;58.50;;;;;;5073567;28;20463;-73
2023/08/23 11:45:04;;;;;;;4.70;2.27;;;32.30;60.20;;;;;;5073565;28;20412;-73
2023/08/23 11:47:30;;;;;;;1.70;1.60;;;32.20;58.80;;;;;;5073795;28;20408;-73
2023/08/23 11:49:56;;;;;;;1.30;1.20;;;32.10;59.70;;;;;;5073427;28;20786;-73
2023/08/23 11:52:22;;;;;;;1.97;1.70;;;;;;;;;;5073382;28;20462;-73
2023/08/23 11:54:52;;;;;;;1.40;1.30;;;32.40;57.60;;;;;;5073544;28;20400;-73
2023/08/23 11:57:18;;;;;;;1.30;1.20;;;;;;;;;;5073517;28;20453;-72
2023/08/23 11:59:44;;;;;;;2.63;2.00;;;32.60;56.00;;;;;;5073526;28;20813;-72
2023/08/23 12:02:10;;;;;;;1.20;1.20;;;32.70;57.40;;;;;;5073278;28;20431;-71
2023/08/23 12:04:43;;;;;;;1.70;1.60;;;32.50;55.90;;;;;;5073182;28;20407;-72
2023/08/23 12:07:09;;;;;;;3.17;1.90;;;32.50;56.50;;;;;;5073361;28;20431;-71
2023/08/23 12:09:35;;;;;;;2.23;2.03;;;32.50;57.00;;;;;;5073372;28;20453;-71
2023/08/23 12:12:03;;;;;;;2.57;1.97;;;32.60;57.30;;;;;;5072746;28;20979;-72
2023/08/23 12:14:29;;;;;;;2.37;2.17;;;32.70;59.20;;;;;;5073376;28;20407;-72
2023/08/23 12:16:55;;;;;;;2.17;1.97;;;;;;;;;;5073508;28;20410;-72
2023/08/23 12:19:21;;;;;;;1.57;1.47;;;32.50;57.60;;;;;;5073276;28;20767;-72
2023/08/23 12:21:47;;;;;;;2.50;1.80;;;;;;;;;;5073395;28;20431;-73
2023/08/23 12:24:13;;;;;;;2.90;2.70;;;;;;;;;;5073035;28;20432;-73
2023/08/23 12:26:39;;;;;;;1.73;1.63;;;;;;;;;;5073422;28;20395;-72
2023/08/23 12:29:05;;;;;;;3.90;1.70;;;31.80;58.70;;;;;;5073291;28;20872;-72
2023/08/23 12:31:31;;;;;;;2.87;2.27;;;31.90;59.60;;;;;;5073025;28;20493;-72
2023/08/23 12:33:57;;;;;;;1.93;1.80;;;32.00;59.70;;;;;;5072918;28;20197;-73
2023/08/23 12:36:22;;;;;;;2.27;2.07;;;32.20;59.20;;;;;;5073257;28;20216;-72
2023/08/23 12:38:49;;;;;;;1.80;1.70;;;;;;;;;;5073464;28;20693;-72
2023/08/23 12:41:15;;;;;;;1.77;1.67;;;32.50;58.30;;;;;;5073068;28;20189;-72
2023/08/23 12:43:40;;;;;;;2.90;2.30;;;32.40;58.60;;;;;;5073169;28;20407;-73
2023/08/23 12:46:06;;;;;;;3.00;2.30;;;32.30;59.00;;;;;;5073043;28;20173;-73
2023/08/23 12:48:32;;;;;;;2.80;2.60;;;32.10;59.50;;;;;;5072984;28;20608;-72
2023/08/23 12:50:57;;;;;;;3.27;2.00;;;32.10;58.60;;;;;;5072752;28;20665;-72
2023/08/23 12:53:23;;;;;;;1.93;1.73;;;32.00;57.70;;;;;;5073036;28;20194;-72
2023/08/23 12:55:51;;;;;;;1.70;1.60;;;31.90;58.50;;;;;;5072865;28;21025;-72
2023/08/23 12:58:17;;;;;;;2.43;2.10;;;31.60;59.10;;;;;;5073012;28;20168;-73
2023/08/23 13:00:43;;;;;;;2.87;2.60;;;31.30;59.90;;;;;;5072953;28;20432;-71
2023/08/23 13:03:09;;;;;;;3.70;2.10;;;;;;;;;;5072792;28;20411;-72
2023/08/23 13:05:35;;;;;;;2.20;2.00;;;31.40;60.80;;;;;;5072712;28;20255;-72